Time;durP1;ratioP1;P1;durP2;ratioP2;P2;SDS_P1;SDS_P2;PMS_P1;PMS_P2;Temp;Humidity;BMP_temperature;BMP_pressure;BME280_temperature;BME280_humidity;BME280_pressure;Samples;Min_cycle;Max_cycle;Signal;HPM_P1;HPM_P2
2023/05/04 00:02:23;;;;;;;4.90;4.47;;;11.80;57.80;;;14.40;43.56;102566.53;5116176;28;20549;-59
2023/05/04 00:04:51;;;;;;;8.00;5.37;;;11.80;57.60;;;14.38;43.44;102560.53;5115727;28;20626;-62
2023/05/04 00:07:18;;;;;;;7.60;5.20;;;11.80;57.60;;;14.34;43.60;102556.53;5113960;28;20187;-60
2023/05/04 00:09:45;;;;;;;6.47;4.90;;;11.80;58.00;;;14.35;43.71;102557.38;5101831;28;20188;-60
2023/05/04 00:12:12;;;;;;;8.43;5.47;;;11.80;57.90;;;14.33;43.68;102554.88;5077669;28;20247;-61
2023/05/04 00:14:39;;;;;;;10.93;5.50;;;11.80;58.00;;;14.30;43.87;102551.66;5095700;28;20723;-60
2023/05/04 00:17:08;;;;;;;6.90;5.57;;;11.80;58.10;;;14.26;43.80;102554.63;5115537;28;20192;-62
2023/05/04 00:19:36;;;;;;;8.17;5.73;;;11.80;58.00;;;14.23;43.95;102554.09;5108611;28;20211;-62
2023/05/04 00:22:02;;;;;;;7.33;5.43;;;11.70;58.30;;;14.20;43.87;102543.81;5115808;28;20556;-63
2023/05/04 00:24:29;;;;;;;6.67;6.00;;;11.60;58.30;;;14.17;44.10;102549.41;5109463;28;20861;-61
2023/05/04 00:26:56;;;;;;;6.27;5.57;;;11.60;58.40;;;14.15;44.19;102546.09;5112647;28;20590;-60
2023/05/04 00:29:23;;;;;;;6.67;5.70;;;11.60;58.50;;;14.13;44.15;102542.75;5099740;28;20193;-59
2023/05/04 00:31:50;;;;;;;6.60;5.97;;;11.60;58.50;;;14.11;44.32;102539.44;5094997;28;20192;-61
2023/05/04 00:34:18;;;;;;;7.73;5.67;;;11.50;58.70;;;14.11;44.38;102537.63;5095082;28;20212;-63
2023/05/04 00:36:46;;;;;;;6.97;6.03;;;11.60;58.80;;;14.12;44.15;102541.13;5094738;28;20262;-60
2023/05/04 00:39:13;;;;;;;8.73;6.20;;;11.60;58.80;;;14.11;44.31;102542.09;5101620;28;20567;-61
2023/05/04 00:41:40;;;;;;;6.47;5.80;;;11.60;58.90;;;14.09;44.25;102536.13;5094849;28;20196;-61
2023/05/04 00:44:07;;;;;;;8.40;6.37;;;11.50;58.90;;;14.08;44.46;102529.97;5093467;28;20212;-62
2023/05/04 00:46:35;;;;;;;5.97;5.27;;;11.50;59.00;;;14.07;44.45;102527.50;5112173;28;20188;-61
2023/05/04 00:49:03;;;;;;;6.90;6.07;;;11.50;59.10;;;14.09;44.08;102528.19;5107731;28;20713;-62
2023/05/04 00:51:32;;;;;;;6.93;6.20;;;11.50;59.60;;;14.08;44.45;102529.97;5115378;28;20191;-62
2023/05/04 00:53:59;;;;;;;7.43;5.87;;;11.50;59.10;;;14.08;44.34;102523.84;5113205;28;20191;-61
2023/05/04 00:56:30;;;;;;;9.43;6.63;;;11.50;59.10;;;14.08;44.46;102526.50;5075711;28;20203;-60
2023/05/04 00:58:57;;;;;;;8.17;6.23;;;11.50;59.10;;;14.06;44.10;102526.66;5101420;28;20286;-62
2023/05/04 01:01:25;;;;;;;7.47;5.70;;;11.50;59.10;;;14.04;44.59;102522.50;5094537;28;20204;-60
2023/05/04 01:03:54;;;;;;;7.03;6.07;;;11.50;59.30;;;14.04;44.45;102517.22;5094203;28;20283;-60
2023/05/04 01:06:33;;;;;;;6.53;5.93;;;11.50;59.20;;;14.00;44.49;102521.16;5089311;28;20290;-59
2023/05/04 01:09:09;;;;;;;7.67;6.03;;;11.40;59.10;;;13.93;44.46;102512.16;5088097;28;20686;-61
2023/05/04 01:11:45;;;;;;;8.00;6.20;;;11.40;59.20;;;13.88;44.74;102514.44;5094511;28;20168;-59
2023/05/04 01:14:14;;;;;;;7.63;5.43;;;11.30;59.70;;;13.86;44.63;102519.06;5094243;28;20223;-61
2023/05/04 01:16:41;;;;;;;7.07;5.97;;;11.30;59.90;;;13.85;44.92;102522.66;5095347;28;20295;-61
2023/05/04 01:19:08;;;;;;;6.80;6.10;;;11.30;59.80;;;13.83;45.04;102514.06;5102952;28;20241;-61
2023/05/04 01:21:37;;;;;;;7.47;6.30;;;11.20;59.80;;;13.81;45.06;102510.72;5101666;28;20212;-60
2023/05/04 01:24:05;;;;;;;7.37;5.53;;;11.20;60.10;;;13.81;45.29;102511.53;5093721;28;20188;-61
2023/05/04 01:26:40;;;;;;;7.53;6.50;;;11.20;60.10;;;13.81;44.98;102510.72;5097226;28;20188;-61
2023/05/04 01:29:16;;;;;;;7.30;6.60;;;11.20;60.10;;;13.79;45.08;102507.38;5098123;28;20263;-62
2023/05/04 01:31:45;;;;;;;7.90;6.53;;;11.20;60.10;;;13.79;45.09;102507.38;5094129;28;20206;-59
2023/05/04 01:34:13;;;;;;;7.40;5.80;;;11.20;61.00;;;13.76;45.16;102513.00;5093881;28;20208;-61
2023/05/04 01:36:43;;;;;;;8.13;6.23;;;11.20;60.30;;;13.73;45.73;102506.19;5110230;28;20204;-60
2023/05/04 01:39:10;;;;;;;7.73;5.90;;;11.10;61.10;;;13.71;45.21;102510.81;5106669;28;20206;-60
2023/05/04 01:41:38;;;;;;;8.07;5.70;;;11.10;60.50;;;13.67;45.44;102513.91;5094289;28;20208;-60
2023/05/04 01:44:05;;;;;;;9.63;6.30;;;11.10;60.70;;;13.64;45.56;102509.75;5094042;28;20199;-61
2023/05/04 01:46:32;;;;;;;9.53;6.57;;;11.10;60.60;;;13.65;45.00;102499.97;5109157;28;20637;-63
2023/05/04 01:48:59;;;;;;;8.83;6.27;;;11.00;60.70;;;13.61;45.37;102507.38;5108668;28;20204;-62
2023/05/04 01:51:26;;;;;;;9.70;5.67;;;11.00;60.70;;;13.57;45.47;102496.25;5094932;28;20537;-61
2023/05/04 01:53:54;;;;;;;8.90;6.00;;;11.00;60.50;;;13.52;45.68;102501.19;5076551;28;20199;-62
2023/05/04 01:56:21;;;;;;;11.27;6.77;;;10.90;60.90;;;13.49;45.80;102503.31;5106838;28;20203;-62
2023/05/04 01:58:48;;;;;;;8.23;5.50;;;10.90;61.00;;;13.46;45.68;102501.78;5109360;28;20195;-60
2023/05/04 02:01:15;;;;;;;10.63;6.03;;;10.90;61.10;;;13.42;45.76;102504.88;5093933;28;20261;-61
2023/05/04 02:03:43;;;;;;;7.83;5.83;;;10.80;61.40;;;13.39;45.84;102495.44;5113008;28;20196;-63
2023/05/04 02:06:10;;;;;;;9.63;6.00;;;10.80;61.20;;;13.34;45.76;102500.31;5087250;28;20692;-61
2023/05/04 02:08:38;;;;;;;8.43;6.43;;;10.70;61.20;;;13.28;46.15;102500.94;5112301;28;20558;-61
2023/05/04 02:11:06;;;;;;;7.10;6.13;;;10.70;61.90;;;13.25;46.24;102497.75;5095108;28;20192;-60
2023/05/04 02:13:33;;;;;;;7.20;6.33;;;10.60;62.00;;;13.20;46.49;102490.25;5076145;28;20655;-60
2023/05/04 02:16:00;;;;;;;10.13;6.37;;;10.60;62.20;;;13.18;46.30;102491.38;5103438;28;20722;-58
2023/05/04 02:18:27;;;;;;;8.53;6.13;;;10.50;61.90;;;13.12;46.50;102492.78;5097587;28;20645;-62
2023/05/04 02:20:54;;;;;;;9.00;6.13;;;10.50;62.50;;;13.07;46.86;102483.66;5077735;28;20232;-60
2023/05/04 02:23:21;;;;;;;7.00;6.27;;;10.40;62.80;;;13.05;46.97;102491.69;5093340;28;20307;-57
2023/05/04 02:25:48;;;;;;;10.10;5.97;;;10.40;63.10;;;13.02;46.81;102486.72;5093498;28;20585;-60
2023/05/04 02:28:17;;;;;;;11.97;5.77;;;10.40;63.10;;;13.00;47.10;102482.56;5090106;28;20206;-61
2023/05/04 02:30:44;;;;;;;9.23;6.07;;;10.30;63.20;;;12.97;47.14;102478.41;5093852;28;20338;-61
2023/05/04 02:33:11;;;;;;;7.53;6.30;;;10.30;63.50;;;12.96;47.13;102476.72;5093127;28;20615;-61
2023/05/04 02:35:38;;;;;;;7.43;5.70;;;10.30;63.50;;;12.98;47.28;102479.25;5095505;28;20209;-59
2023/05/04 02:38:05;;;;;;;8.03;5.80;;;10.30;63.50;;;12.97;46.89;102474.91;5110304;28;20195;-59
2023/05/04 02:40:32;;;;;;;7.87;6.30;;;10.30;63.20;;;12.93;47.24;102475.19;5099100;28;20212;-61
2023/05/04 02:42:59;;;;;;;8.73;5.50;;;10.30;63.70;;;12.93;47.19;102474.41;5093235;28;20200;-57
2023/05/04 02:45:27;;;;;;;7.43;5.63;;;10.30;63.80;;;12.92;46.98;102472.72;5100294;28;20247;-59
2023/05/04 02:47:54;;;;;;;8.10;5.50;;;10.30;63.80;;;12.92;47.54;102467.44;5112305;28;20198;-59
2023/05/04 02:50:21;;;;;;;11.17;6.23;;;10.30;64.00;;;12.92;47.25;102467.44;5113536;28;20196;-58
2023/05/04 02:52:48;;;;;;;7.03;5.53;;;10.30;64.10;;;12.95;47.42;102469.78;5113518;28;20188;-58
2023/05/04 02:55:15;;;;;;;8.87;5.47;;;10.30;63.80;;;12.94;47.17;102457.53;5103808;28;20621;-59
2023/05/04 02:57:42;;;;;;;7.27;5.70;;;10.30;63.90;;;12.95;47.17;102464.50;5105409;28;20206;-60
2023/05/04 03:00:10;;;;;;;8.43;5.90;;;10.30;64.10;;;12.97;47.57;102459.06;5091844;28;20197;-60
2023/05/04 03:02:39;;;;;;;12.43;5.97;;;10.30;64.10;;;12.98;46.91;102464.19;5092678;28;20192;-62
2023/05/04 03:05:07;;;;;;;8.47;5.97;;;10.30;63.70;;;12.97;46.97;102461.69;5101301;28;20219;-61
2023/05/04 03:07:34;;;;;;;6.80;5.23;;;10.30;63.90;;;12.96;46.98;102455.56;5106321;28;20188;-62
2023/05/04 03:10:01;;;;;;;10.40;5.67;;;10.30;63.80;;;12.94;47.45;102452.25;5093323;28;20197;-61
2023/05/04 03:12:28;;;;;;;7.47;5.50;;;10.30;64.00;;;12.94;47.13;102454.91;5095573;28;20207;-62
2023/05/04 03:14:55;;;;;;;8.00;5.43;;;10.30;64.10;;;12.93;47.13;102450.59;5101919;28;20726;-61
2023/05/04 03:17:21;;;;;;;6.93;5.60;;;10.30;64.00;;;12.93;47.12;102450.59;5111052;28;20282;-59
2023/05/04 03:19:50;;;;;;;8.50;5.70;;;10.30;64.00;;;12.92;47.46;102454.22;5096810;28;20189;-61
2023/05/04 03:22:17;;;;;;;9.57;5.30;;;10.30;64.20;;;12.93;47.50;102448.78;5096444;28;20613;-59
2023/05/04 03:24:44;;;;;;;7.13;5.77;;;10.30;64.30;;;12.96;47.43;102450.28;5096788;28;20627;-61
2023/05/04 03:27:11;;;;;;;6.77;5.30;;;10.30;63.90;;;12.94;47.20;102452.25;5097688;28;20281;-61
2023/05/04 03:29:38;;;;;;;7.37;5.30;;;10.30;63.80;;;12.91;47.04;102452.53;5107303;28;20194;-62
2023/05/04 03:32:05;;;;;;;6.23;5.50;;;10.30;63.90;;;12.87;47.16;102446.72;5105378;28;20669;-61
2023/05/04 03:34:32;;;;;;;11.17;6.17;;;10.30;64.30;;;12.87;47.33;102446.72;5096001;28;20209;-60
2023/05/04 03:37:01;;;;;;;8.97;5.27;;;10.20;64.60;;;12.87;47.36;102452.03;5116263;28;20236;-60
2023/05/04 03:39:28;;;;;;;11.13;5.47;;;10.20;64.40;;;12.86;47.46;102449.50;5096325;28;20588;-61
2023/05/04 03:41:54;;;;;;;9.50;5.87;;;10.20;64.40;;;12.84;47.81;102444.38;5108167;28;20225;-59
2023/05/04 03:44:21;;;;;;;7.60;5.30;;;10.20;64.80;;;12.85;47.36;102439.94;5116262;28;20214;-63
2023/05/04 03:46:48;;;;;;;7.77;4.90;;;10.20;64.60;;;12.87;47.57;102435.31;5097401;28;20204;-61
2023/05/04 03:49:15;;;;;;;9.57;5.60;;;10.20;64.60;;;12.86;47.32;102438.94;5115160;28;20199;-60
2023/05/04 03:51:42;;;;;;;7.03;5.13;;;10.20;64.60;;;12.86;47.64;102438.94;5116385;28;20219;-59
2023/05/04 03:54:11;;;;;;;8.93;4.87;;;10.20;64.70;;;12.86;47.35;102436.28;5112755;28;20196;-61
2023/05/04 03:56:38;;;;;;;7.73;4.87;;;10.20;64.50;;;12.86;47.67;102433.66;5081065;28;20195;-61
2023/05/04 03:59:05;;;;;;;6.60;5.47;;;10.20;64.60;;;12.85;47.59;102424.91;5113187;28;20612;-61
2023/05/04 04:01:32;;;;;;;7.23;5.17;;;10.10;64.70;;;12.87;47.78;102428.22;5116238;28;20216;-60
2023/05/04 04:03:59;;;;;;;8.47;5.37;;;10.20;64.90;;;12.90;47.54;102419.19;5115555;28;20191;-61
2023/05/04 04:06:26;;;;;;;6.83;4.77;;;10.20;64.80;;;12.91;47.41;102415.53;5105069;28;20718;-62
2023/05/04 04:08:53;;;;;;;7.63;4.93;;;10.20;64.60;;;12.92;47.48;102414.56;5095617;28;20250;-61
2023/05/04 04:11:21;;;;;;;9.70;5.03;;;10.20;64.60;;;12.93;47.25;102418.91;5096293;28;20630;-59
2023/05/04 04:13:48;;;;;;;7.53;4.70;;;10.20;64.60;;;12.94;47.15;102412.59;5103601;28;20260;-61
2023/05/04 04:16:15;;;;;;;8.53;4.80;;;10.20;64.60;;;12.95;47.59;102422.22;5115434;28;20208;-62
2023/05/04 04:18:42;;;;;;;7.60;4.67;;;10.20;64.80;;;12.97;47.57;102419.41;5101603;28;20201;-59
2023/05/04 04:21:09;;;;;;;8.70;4.87;;;10.30;64.90;;;12.99;47.60;102415.66;5095423;28;20212;-59
2023/05/04 04:23:36;;;;;;;7.93;4.73;;;10.30;64.90;;;13.04;47.46;102421.31;5113137;28;20198;-61
2023/05/04 04:26:05;;;;;;;8.03;4.73;;;10.30;64.80;;;13.08;46.98;102417.41;5115408;28;20269;-60
2023/05/04 04:28:34;;;;;;;7.27;4.57;;;10.40;64.60;;;13.10;47.04;102420.75;5112380;28;20191;-62
2023/05/04 04:31:02;;;;;;;8.70;5.37;;;10.40;64.20;;;13.09;46.93;102419.09;5096169;28;20575;-63
2023/05/04 04:33:29;;;;;;;7.20;5.13;;;10.30;64.50;;;13.10;47.16;102419.94;5112428;28;20192;-60
2023/05/04 04:35:56;;;;;;;5.93;4.43;;;10.30;64.30;;;13.09;47.31;102429.66;5097863;28;20236;-60
2023/05/04 04:38:23;;;;;;;9.63;4.60;;;10.30;64.20;;;13.11;47.44;102427.69;5094939;28;20238;-61
2023/05/04 04:40:51;;;;;;;10.30;4.40;;;10.30;64.50;;;13.13;46.81;102431.03;5094430;28;20698;-61
2023/05/04 04:43:18;;;;;;;7.03;4.77;;;10.30;64.30;;;13.17;47.03;102427.09;5098640;28;20223;-60
2023/05/04 04:45:46;;;;;;;8.53;3.90;;;10.40;64.40;;;13.22;47.01;102429.28;5094747;28;20607;-60
2023/05/04 04:48:13;;;;;;;8.77;4.60;;;10.40;64.20;;;13.25;46.81;102427.19;5077024;28;20253;-62
2023/05/04 04:50:40;;;;;;;4.93;4.10;;;10.50;64.30;;;13.29;46.71;102428.53;5094407;28;20541;-59
2023/05/04 04:53:07;;;;;;;11.80;4.83;;;10.50;64.10;;;13.32;46.80;102422.13;5103501;28;20184;-63
2023/05/04 04:55:34;;;;;;;5.80;4.70;;;10.60;64.10;;;13.35;46.52;102435.88;5099540;28;20228;-61
2023/05/04 04:58:01;;;;;;;10.73;4.63;;;10.50;63.70;;;13.36;46.62;102437.53;5082062;28;20310;-62
2023/05/04 05:00:28;;;;;;;7.23;4.33;;;10.50;63.50;;;13.38;46.48;102438.22;5114816;28;20196;-61
2023/05/04 05:02:57;;;;;;;5.73;4.70;;;10.50;63.70;;;13.39;46.46;102439.03;5107182;28;20575;-60
2023/05/04 05:05:24;;;;;;;6.20;4.43;;;10.50;63.60;;;13.40;46.52;102441.56;5093869;28;20742;-62
2023/05/04 05:07:51;;;;;;;7.77;4.40;;;10.60;63.70;;;13.41;46.34;102445.84;5099203;28;20686;-62
2023/05/04 05:10:18;;;;;;;9.03;4.20;;;10.60;63.50;;;13.41;46.32;102434.44;5099766;28;20197;-60
2023/05/04 05:12:45;;;;;;;7.00;3.70;;;10.60;63.60;;;13.40;46.20;102438.91;5078287;28;20192;-62
2023/05/04 05:15:12;;;;;;;9.00;4.47;;;10.60;63.30;;;13.36;46.25;102440.19;5104621;28;20594;-60
2023/05/04 05:17:39;;;;;;;7.13;4.43;;;10.60;63.40;;;13.37;46.57;102444.50;5097353;28;20655;-62
2023/05/04 05:20:10;;;;;;;7.23;4.47;;;10.60;64.00;;;13.42;46.54;102447.53;5114511;28;20200;-62
2023/05/04 05:22:37;;;;;;;6.70;4.40;;;10.60;63.80;;;13.46;46.48;102443.59;5111391;28;20204;-61
2023/05/04 05:25:05;;;;;;;6.37;4.30;;;10.60;63.50;;;13.49;46.16;102443.28;5076271;28;20228;-62
2023/05/04 05:27:35;;;;;;;10.30;4.37;;;10.60;63.30;;;13.52;46.28;102450.09;5106579;28;20245;-62
2023/05/04 05:30:04;;;;;;;4.50;3.70;;;10.70;63.70;;;13.57;45.99;102448.63;5106958;28;20199;-60
2023/05/04 05:32:32;;;;;;;7.50;5.50;;;10.70;63.50;;;13.62;45.98;102442.09;5101451;28;20516;-61
2023/05/04 05:34:59;;;;;;;7.63;4.30;;;10.70;63.50;;;13.67;45.99;102439.81;5096508;28;20700;-63
2023/05/04 05:37:28;;;;;;;6.53;3.83;;;10.70;63.40;;;13.74;45.71;102440.88;5091622;28;20189;-61
2023/05/04 05:39:55;;;;;;;6.73;3.90;;;10.80;63.30;;;13.82;45.51;102448.84;5093360;28;20258;-61
2023/05/04 05:42:22;;;;;;;5.50;3.60;;;10.90;63.20;;;13.87;45.58;102441.28;5075483;28;20227;-65
2023/05/04 05:44:49;;;;;;;6.40;4.43;;;10.90;63.20;;;13.95;45.45;102441.34;5088871;28;20620;-59
2023/05/04 05:47:17;;;;;;;6.53;4.00;;;11.00;63.10;;;14.03;45.18;102444.88;5077494;28;20661;-62
2023/05/04 05:49:44;;;;;;;8.67;3.93;;;11.00;62.90;;;14.12;45.41;102446.59;5112895;28;20188;-61
2023/05/04 05:52:12;;;;;;;8.23;4.17;;;11.10;62.60;;;14.20;44.96;102443.16;5096339;28;20603;-63
2023/05/04 05:54:41;;;;;;;7.70;3.33;;;11.20;62.70;;;14.32;44.96;102449.06;5073358;28;20306;-61
2023/05/04 05:57:08;;;;;;;6.93;3.67;;;11.30;62.60;;;14.44;44.81;102445.16;5112544;28;20198;-61
2023/05/04 05:59:35;;;;;;;7.97;3.73;;;11.40;62.40;;;14.54;44.33;102437.94;5093252;28;20200;-58
2023/05/04 06:02:01;;;;;;;9.13;3.80;;;11.50;62.00;;;14.66;43.93;102437.50;5093208;28;20285;-61
2023/05/04 06:04:29;;;;;;;5.23;3.43;;;11.60;61.50;;;14.72;43.87;102439.50;5093353;28;20289;-62
2023/05/04 06:06:56;;;;;;;5.83;3.77;;;11.70;61.00;;;14.79;43.49;102447.66;5094893;28;20199;-63
2023/05/04 06:09:22;;;;;;;5.40;3.83;;;11.80;60.60;;;14.85;43.36;102445.22;5106964;28;20212;-61
2023/05/04 06:11:51;;;;;;;6.70;3.67;;;11.80;60.20;;;14.96;43.48;102440.56;5075061;28;20199;-62
2023/05/04 06:14:21;;;;;;;7.17;3.53;;;11.90;60.20;;;15.10;43.17;102442.59;5092774;28;20209;-62
2023/05/04 06:16:48;;;;;;;8.07;3.70;;;12.00;60.00;;;15.23;42.89;102437.69;5106726;28;20228;-62
2023/05/04 06:19:16;;;;;;;3.47;3.13;;;12.10;59.90;;;15.34;42.72;102434.69;5109354;28;20530;-60
2023/05/04 06:21:43;;;;;;;3.60;2.80;;;12.20;59.60;;;15.45;42.25;102427.28;5094446;28;20672;-62
2023/05/04 06:24:11;;;;;;;7.23;4.67;;;12.30;59.40;;;15.58;41.81;102426.78;5092323;28;20196;-61
2023/05/04 06:26:38;;;;;;;7.30;3.40;;;12.40;59.10;;;15.69;41.90;102420.34;5093133;28;20193;-61
2023/05/04 06:29:06;;;;;;;16.73;7.20;;;12.50;58.80;;;15.77;41.38;102415.84;5106627;28;20233;-64
2023/05/04 06:31:34;;;;;;;8.07;3.50;;;12.60;58.50;;;15.83;41.46;102420.47;5096316;28;20185;-61
2023/05/04 06:34:01;;;;;;;6.70;3.37;;;12.70;58.20;;;15.88;41.30;102417.34;5092757;28;20211;-61
2023/05/04 06:36:28;;;;;;;4.47;3.10;;;12.80;57.80;;;15.93;41.02;102410.50;5074948;28;20200;-61
2023/05/04 06:38:57;;;;;;;6.10;3.77;;;12.90;57.60;;;15.97;41.13;102406.53;5105763;28;20196;-61
2023/05/04 06:41:24;;;;;;;4.20;2.93;;;12.90;57.50;;;16.04;40.97;102402.22;5088868;28;20196;-62
2023/05/04 06:43:51;;;;;;;8.30;3.37;;;13.00;57.60;;;16.04;40.67;102407.53;5112878;28;20188;-60
2023/05/04 06:46:20;;;;;;;7.17;3.13;;;13.10;57.30;;;16.05;41.15;102401.19;5096134;28;20227;-63
2023/05/04 06:48:47;;;;;;;5.83;2.83;;;13.10;57.20;;;16.14;40.99;102408.16;5090890;28;20195;-63
2023/05/04 06:51:15;;;;;;;9.33;4.67;;;13.20;57.30;;;16.22;40.65;102402.81;5098293;28;20296;-61
2023/05/04 06:53:41;;;;;;;9.10;4.80;;;13.20;57.20;;;16.36;40.90;102403.09;5100164;28;20196;-62
2023/05/04 06:56:15;;;;;;;4.73;3.13;;;13.30;57.30;;;16.48;40.61;102399.06;5095696;28;20224;-65
2023/05/04 06:58:46;;;;;;;4.97;3.30;;;13.40;57.90;;;16.58;40.13;102391.75;5095420;28;20204;-64
2023/05/04 07:01:13;;;;;;;5.17;3.33;;;13.50;57.10;;;16.67;40.36;102398.69;5077744;28;20200;-63
2023/05/04 07:03:45;;;;;;;6.40;3.67;;;13.60;57.20;;;16.80;40.30;102388.34;5094563;28;20740;-63
2023/05/04 07:06:12;;;;;;;5.83;3.23;;;13.60;57.00;;;16.91;40.03;102390.59;5076107;28;20223;-63
2023/05/04 07:08:39;;;;;;;8.83;3.13;;;13.70;56.70;;;17.02;39.51;102387.53;5094487;28;20705;-61
2023/05/04 07:11:08;;;;;;;8.57;3.10;;;13.80;56.40;;;17.13;39.41;102389.78;5109007;28;20211;-64
2023/05/04 07:13:35;;;;;;;5.37;2.67;;;13.90;56.30;;;17.28;39.52;102381.88;5096451;28;20180;-61
2023/05/04 07:16:05;;;;;;;8.00;3.27;;;14.00;56.10;;;17.47;39.07;102392.84;5110423;28;20287;-62
2023/05/04 07:18:32;;;;;;;6.63;3.07;;;14.20;56.20;;;17.66;38.92;102380.09;5076992;28;20213;-61
2023/05/04 07:21:01;;;;;;;7.03;3.70;;;14.30;55.60;;;17.82;38.31;102388.75;5084026;28;20700;-63
2023/05/04 07:23:48;;;;;;;6.93;4.40;;;14.50;55.30;;;17.99;38.20;102381.44;5095067;28;20172;-64
2023/05/04 07:26:15;;;;;;;6.47;3.43;;;14.70;55.00;;;18.12;38.03;102381.59;5107190;28;20216;-61
2023/05/04 07:28:42;;;;;;;8.37;3.87;;;14.80;54.30;;;18.24;37.76;102374.81;5098271;28;20200;-60
2023/05/04 07:31:11;;;;;;;3.73;2.90;;;15.00;54.10;;;18.44;37.27;102370.56;5088729;28;20261;-63
2023/05/04 07:33:39;;;;;;;4.67;2.80;;;15.10;53.70;;;18.61;37.00;102373.91;5095145;28;20189;-62
2023/05/04 07:36:08;;;;;;;5.23;3.30;;;15.30;53.40;;;18.77;37.01;102365.66;5094774;28;20583;-62
2023/05/04 07:38:35;;;;;;;6.57;3.10;;;15.40;53.20;;;18.91;36.39;102364.78;5117332;28;20196;-61
2023/05/04 07:41:03;;;;;;;6.20;3.13;;;15.50;52.60;;;19.06;36.19;102368.25;5100301;28;20192;-61
2023/05/04 07:43:30;;;;;;;6.83;2.73;;;15.70;52.50;;;19.24;36.06;102357.09;5074573;28;20221;-62
2023/05/04 07:45:57;;;;;;;3.87;2.23;;;15.80;52.10;;;19.49;35.62;102350.41;5099744;28;20232;-61
2023/05/04 07:48:24;;;;;;;6.40;2.60;;;15.90;52.10;;;19.78;35.43;102349.38;5116776;28;20195;-61
2023/05/04 07:50:52;;;;;;;9.73;3.73;;;16.10;51.60;;;20.03;34.97;102353.22;5092934;28;20192;-62
2023/05/04 07:53:21;;;;;;;4.37;2.90;;;16.30;51.40;;;20.29;34.43;102347.22;5093118;28;20278;-61
2023/05/04 07:55:48;;;;;;;6.00;3.50;;;16.50;50.40;;;20.41;33.23;102346.47;5102436;28;20302;-64
2023/05/04 07:58:15;;;;;;;4.55;3.00;;;16.70;49.10;;;20.79;32.56;102339.59;5100002;28;20923;-64
2023/05/04 08:00:43;;;;;;;7.13;3.57;;;16.90;48.60;;;20.96;32.85;102340.03;5081775;28;20218;-62
2023/05/04 08:03:10;;;;;;;5.20;3.10;;;17.10;48.60;;;21.31;32.73;102332.69;5095878;28;20216;-61
2023/05/04 08:05:37;;;;;;;6.90;3.40;;;17.40;48.80;;;21.73;32.08;102331.44;5108021;28;20262;-62
2023/05/04 08:08:04;;;;;;;7.03;2.80;;;17.70;48.20;;;22.26;31.64;102338.31;5074750;28;20204;-61
2023/05/04 08:10:35;;;;;;;4.73;3.20;;;18.00;47.40;;;22.94;30.59;102341.31;5087492;28;20204;-60
2023/05/04 08:13:03;;;;;;;7.17;2.77;;;18.40;46.80;;;23.65;30.04;102337.25;5053508;28;20189;-62
2023/05/04 08:15:33;;;;;;;8.97;7.20;;;18.90;46.40;;;24.53;28.88;102332.34;5066473;28;20652;-63
2023/05/04 08:18:03;;;;;;;5.20;3.10;;;19.30;45.80;;;25.39;26.89;102328.13;5056802;28;20715;-64
2023/05/04 08:20:31;;;;;;;6.67;3.00;;;19.90;43.10;;;26.24;26.17;102328.44;5076876;28;20287;-64
2023/05/04 08:23:02;;;;;;;4.33;2.60;;;20.60;42.40;;;27.21;25.34;102332.69;5067994;28;20640;-64
2023/05/04 08:25:31;;;;;;;8.50;3.22;;;21.20;41.50;;;28.32;23.98;102317.22;5082893;28;20438;-62
2023/05/04 08:27:58;;;;;;;5.60;2.87;;;21.90;40.10;;;29.02;21.52;102317.97;5086867;28;20208;-63
2023/05/04 08:30:25;;;;;;;3.83;2.20;;;22.50;35.80;;;29.08;21.99;102316.91;5091515;28;20196;-63
2023/05/04 08:32:55;;;;;;;3.97;2.50;;;23.00;34.30;;;29.08;21.33;102311.50;5089405;28;20508;-64
2023/05/04 08:35:26;;;;;;;21.03;17.10;;;23.20;33.40;;;28.86;22.03;102308.03;5072191;28;20216;-62
2023/05/04 08:37:53;;;;;;;3.43;2.20;;;23.50;33.80;;;28.67;21.45;102314.91;5091975;28;20220;-62
2023/05/04 08:40:22;;;;;;;4.70;2.30;;;23.60;31.90;;;28.18;22.10;102312.19;5091576;28;20205;-62
2023/05/04 08:42:52;;;;;;;5.37;1.80;;;23.60;31.70;;;27.86;22.36;102305.78;5078125;28;20274;-63
2023/05/04 08:45:20;;;;;;;2.67;1.83;;;23.60;31.90;;;28.00;22.44;102311.72;5070246;28;20266;-61
2023/05/04 08:47:47;;;;;;;3.97;2.17;;;23.60;32.00;;;28.66;21.98;102314.13;5069346;28;20451;-62
2023/05/04 08:50:14;;;;;;;5.13;2.33;;;23.60;32.10;;;28.88;21.48;102303.19;5094949;28;20245;-64
2023/05/04 08:52:45;;;;;;;4.50;3.10;;;23.90;31.70;;;29.32;21.32;102290.25;5096780;28;20347;-60
2023/05/04 08:55:15;;;;;;;5.93;2.53;;;24.10;31.30;;;29.49;21.20;102299.88;5087394;28;20299;-63
2023/05/04 08:57:43;;;;;;;6.07;2.73;;;24.30;31.10;;;29.81;21.00;102282.72;5077948;28;20188;-64
2023/05/04 09:00:16;;;;;;;4.57;2.60;;;24.50;30.90;;;30.23;19.52;102296.16;5088271;28;20255;-61
2023/05/04 09:02:44;;;;;;;5.10;3.03;;;24.70;29.90;;;30.43;19.10;102302.50;5086564;28;20456;-62
2023/05/04 09:05:14;;;;;;;3.03;2.30;;;24.90;29.60;;;30.99;19.45;102288.97;5084014;28;20443;-64
2023/05/04 09:07:41;;;;;;;7.90;2.93;;;25.20;29.70;;;31.61;18.62;102281.28;5085895;28;20216;-61
2023/05/04 09:10:09;;;;;;;3.43;2.17;;;25.60;29.20;;;32.27;18.45;102281.00;5089390;28;20792;-63
2023/05/04 09:12:36;;;;;;;5.80;2.87;;;26.10;28.50;;;32.79;17.88;102275.75;5060066;28;20239;-63
2023/05/04 09:15:16;;;;;;;5.07;2.40;;;26.50;28.20;;;33.48;16.46;102277.28;5071896;28;20793;-73
2023/05/04 09:17:53;;;;;;;3.13;2.63;;;26.90;26.50;;;33.37;16.54;102277.41;5086845;28;20192;-64
2023/05/04 09:20:24;;;;;;;2.60;2.40;;;27.30;26.60;;;33.17;16.68;102283.06;5084027;28;20188;-66
2023/05/04 09:23:03;;;;;;;6.90;2.70;;;27.40;25.30;;;32.41;16.90;102273.81;5075254;28;20243;-65
2023/05/04 09:25:31;;;;;;;4.60;2.27;;;27.20;24.90;;;32.39;16.89;102271.38;5089891;28;20212;-65
2023/05/04 09:27:58;;;;;;;4.68;2.42;;;27.30;25.10;;;32.42;16.66;102265.38;5087171;28;20913;-63
2023/05/04 09:30:27;;;;;;;6.13;2.33;;;26.90;25.40;;;32.26;17.27;102271.22;5076705;28;20196;-66
2023/05/04 09:32:54;;;;;;;4.30;2.27;;;27.10;25.60;;;32.40;17.33;102259.34;5094868;28;20193;-62
2023/05/04 09:35:31;;;;;;;3.90;2.43;;;27.20;25.70;;;32.79;16.71;102256.63;5087374;28;20217;-67
2023/05/04 09:38:00;;;;;;;7.47;2.93;;;27.40;25.70;;;33.00;17.09;102252.63;5070631;28;20204;-65
2023/05/04 09:40:31;;;;;;;5.17;2.70;;;27.40;25.10;;;32.78;16.49;102252.31;5090589;28;20188;-64
2023/05/04 09:42:59;;;;;;;3.80;2.37;;;27.40;24.70;;;32.58;16.50;102241.53;5108795;28;20705;-62
2023/05/04 09:45:38;;;;;;;7.70;2.80;;;27.40;24.40;;;32.57;16.43;102250.81;5101728;28;20701;-64
2023/05/04 09:48:17;;;;;;;6.73;2.23;;;27.40;24.70;;;32.81;15.76;102240.78;5080950;28;20204;-63
2023/05/04 09:50:53;;;;;;;5.13;2.70;;;27.50;24.60;;;32.97;16.80;102252.41;5080004;28;20203;-65
2023/05/04 09:53:23;;;;;;;4.77;2.07;;;27.60;24.90;;;32.66;16.52;102249.13;5073030;28;20608;-64
2023/05/04 09:56:07;;;;;;;3.55;2.33;;;27.40;24.50;;;32.83;16.71;102243.25;5072492;28;20599;-65
2023/05/04 09:58:35;;;;;;;2.57;2.13;;;27.50;25.20;;;33.08;16.77;102232.09;5071198;28;20261;-65
2023/05/04 10:01:05;;;;;;;3.50;2.50;;;27.60;25.40;;;33.35;16.40;102238.63;5087572;28;20207;-64
2023/05/04 10:03:33;;;;;;;4.07;2.70;;;27.60;25.00;;;33.32;16.34;102241.97;5088200;28;20552;-63
2023/05/04 10:06:05;;;;;;;5.83;2.70;;;27.70;25.10;;;33.52;16.22;102248.28;5085235;28;20444;-63
2023/05/04 10:08:32;;;;;;;4.90;2.37;;;27.80;25.00;;;33.32;16.36;102247.41;5089163;28;20728;-65
2023/05/04 10:11:00;;;;;;;5.47;3.00;;;27.80;24.80;;;33.47;16.68;102245.63;5090110;28;20196;-64
2023/05/04 10:13:28;;;;;;;4.05;2.75;;;27.90;25.00;;;33.44;15.95;102249.75;5088418;28;20444;-62
2023/05/04 10:16:13;;;;;;;4.57;2.30;;;27.80;24.80;;;32.95;16.43;102241.75;5071133;28;20232;-64
2023/05/04 10:19:16;;;;;;;5.03;2.60;;;27.80;24.90;;;33.32;16.34;102241.13;5088153;28;20215;-64